메인 페이지
METAR-TAF:

METAR-TAF

공항 :

산티아고, 칠레

코모도로 아르투로 메리노 베니테스 국제공항

위도: 33-23S, 경도: 070-47W, 고도: 475m

현재 날씨관측

예보는 56분 전, 18:00시(UTC)에 발표되었습니다.
남남동11kt동남동풍과 남남서풍을 오가는
온도 27°C
습도 32%
기압 1016 hPa
시정 10km 이상
고도 18000ft 상공 구름 조금

METAR: SCEL 161800Z 16011KT 120V200 9999 FEW180 27/09 Q1016 NOSIG

시각: 15:56 (18:56 UTC)

예보

예보는 2 시간 46분 전, 16:10시(UTC)에 발표되었습니다.
예보 대상 시간: 16일 18시부터 17일 18시까지 (UTC)
남남서14kt
시정 10km 이상
1500m 미만 상공 구름 및 적란운 없음
전환 중
17일 00시부터 17일 02시까지 (UTC)
6kt
일시적
17일 04시부터 17일 13시까지 (UTC)
여러 방향의 바람 2kt
시정: 7000m
전환 중
17일 14시부터 17일 16시까지 (UTC)
8kt

TAF: SCEL 161610Z 1618/1718 21014KT CAVOK TX28/1619Z TN15/1710Z BECMG 1700/1702 18006KT TEMPO 1704/1713 VRB02KT 7000 NSC BECMG 1714/1716 19008KT

4,000개 이상의 공항 관측 자료 및 예보 (METAR 및 TAF 보고).

지도상에서 검색 가능한 기상관측소가 노란 점과 빨간 점으로 표시되어 있습니다.

기상관측소 명을 보려면 표시 위로 마우스를 이동하세요.

날씨 관측과 예보를 보려면 클릭하세요.

지도 변경 : 확대하려면 엑스 표시가 있는 녹색 버튼, 축소하려면 빼기 표시가 있는 녹색 버튼, 다음 페이지의 지도를 보려면 녹색 화살표를 클릭하세요.


METAR-TAF: